createdAt,value
2022-11-12T00:01:45.540Z,23.15
2022-11-12T00:03:37.276Z,18.80
2022-11-12T00:05:29.427Z,22.77
2022-11-12T00:07:22.501Z,20.92
2022-11-12T00:09:14.771Z,30.98
2022-11-12T00:11:07.407Z,21.48
2022-11-12T00:12:58.449Z,23.92
2022-11-12T00:14:50.211Z,25.17
2022-11-12T00:16:42.231Z,24.42
2022-11-12T00:18:33.582Z,25.25
2022-11-12T00:20:25.795Z,26.02
2022-11-12T00:22:17.783Z,24.23
2022-11-12T00:24:11.082Z,27.40
2022-11-12T00:26:03.697Z,23.45
2022-11-12T00:27:55.741Z,25.23
2022-11-12T00:29:47.498Z,25.33
2022-11-12T00:31:39.758Z,25.60
2022-11-12T00:33:31.438Z,24.20
2022-11-12T00:35:22.813Z,25.27
2022-11-12T00:37:14.793Z,25.85
2022-11-12T00:39:06.643Z,28.33
2022-11-12T00:41:02.005Z,34.90
2022-11-12T00:42:54.585Z,34.38
2022-11-12T00:44:46.212Z,35.03
2022-11-12T00:46:37.622Z,34.28
2022-11-12T00:48:29.480Z,31.60
2022-11-12T00:50:21.059Z,26.42
2022-11-12T00:52:12.829Z,23.27
2022-11-12T00:54:05.544Z,20.92
2022-11-12T00:56:03.806Z,29.02
2022-11-12T00:57:55.910Z,26.02
2022-11-12T00:59:47.912Z,30.77
2022-11-12T01:01:40.516Z,25.77
2022-11-12T01:03:32.419Z,24.48
2022-11-12T01:05:24.612Z,23.25
2022-11-12T01:07:17.050Z,21.58
2022-11-12T01:09:09.208Z,22.13
2022-11-12T01:11:09.376Z,18.98
2022-11-12T01:13:01.067Z,26.02
2022-11-12T01:14:52.864Z,21.15
2022-11-12T01:16:44.921Z,21.05
2022-11-12T01:18:36.771Z,19.02
2022-11-12T01:20:28.735Z,25.48
2022-11-12T01:22:20.825Z,27.27
2022-11-12T01:24:13.492Z,29.23
2022-11-12T01:26:07.701Z,22.92
2022-11-12T01:27:59.905Z,27.23
2022-11-12T01:29:51.408Z,21.88
2022-11-12T01:31:43.492Z,22.52
2022-11-12T01:33:35.408Z,24.58
2022-11-12T01:35:27.253Z,24.52
2022-11-12T01:37:19.082Z,26.50
2022-11-12T01:39:11.423Z,23.88
2022-11-12T01:41:03.604Z,32.42
2022-11-12T01:42:56.812Z,32.75
2022-11-12T01:44:48.725Z,33.08
2022-11-12T01:46:57.341Z,34.03
2022-11-12T01:48:53.483Z,35.35
2022-11-12T01:50:45.958Z,28.83
2022-11-12T01:52:43.883Z,34.88
2022-11-12T01:54:36.247Z,35.58
2022-11-12T01:56:30.423Z,32.83
2022-11-12T01:58:27.232Z,30.42
2022-11-12T02:00:19.845Z,31.10
2022-11-12T02:02:12.349Z,31.50
2022-11-12T02:04:04.445Z,36.10
2022-11-12T02:06:00.974Z,41.45
2022-11-12T02:07:54.652Z,35.28
2022-11-12T02:09:46.404Z,34.67
2022-11-12T02:11:38.362Z,31.05
2022-11-12T02:13:49.333Z,35.92
2022-11-12T02:15:42.415Z,28.80
2022-11-12T02:17:35.261Z,35.28
2022-11-12T02:19:27.382Z,31.23
2022-11-12T02:21:21.158Z,31.98
2022-11-12T02:23:12.858Z,34.00
2022-11-12T02:25:04.664Z,36.38
2022-11-12T02:26:57.324Z,40.03
2022-11-12T02:28:48.974Z,36.60
2022-11-12T02:30:43.578Z,35.78
2022-11-12T02:32:35.721Z,38.13
2022-11-12T02:34:27.244Z,37.40
2022-11-12T02:36:19.432Z,36.42
2022-11-12T02:38:12.707Z,39.28
2022-11-12T02:40:05.059Z,37.00
2022-11-12T02:41:56.921Z,43.72
2022-11-12T02:43:48.520Z,42.65
2022-11-12T02:45:40.277Z,48.22
2022-11-12T02:47:32.197Z,54.15
2022-11-12T02:49:24.275Z,54.72
2022-11-12T02:51:16.443Z,45.40
2022-11-12T02:53:08.425Z,48.65
2022-11-12T02:55:02.109Z,80.00
2022-11-12T02:56:53.503Z,59.35
2022-11-12T02:58:45.264Z,60.45
2022-11-12T03:00:37.200Z,48.60
2022-11-12T03:02:29.198Z,35.83
2022-11-12T03:04:20.928Z,43.70
2022-11-12T03:06:11.827Z,38.03
2022-11-12T03:08:06.586Z,38.35
2022-11-12T03:09:58.545Z,43.80
2022-11-12T03:11:51.974Z,34.75
2022-11-12T03:13:43.893Z,45.53
2022-11-12T03:15:35.687Z,49.53
2022-11-12T03:17:27.729Z,52.20
2022-11-12T03:19:19.890Z,63.83
2022-11-12T03:21:12.133Z,39.35
2022-11-12T03:23:05.358Z,38.53
2022-11-12T03:24:56.707Z,34.35
2022-11-12T03:26:48.472Z,37.13
2022-11-12T03:28:41.561Z,31.13
2022-11-12T03:30:36.088Z,37.20
2022-11-12T03:32:27.798Z,41.50
2022-11-12T03:34:19.866Z,36.47
2022-11-12T03:36:12.101Z,37.42
2022-11-12T03:38:05.775Z,38.72
2022-11-12T03:39:57.369Z,41.85
2022-11-12T03:41:49.428Z,38.42
2022-11-12T03:43:42.732Z,46.78
2022-11-12T03:45:34.684Z,49.60
2022-11-12T03:47:26.623Z,60.90
2022-11-12T03:49:18.639Z,43.97
2022-11-12T03:51:12.275Z,41.28
2022-11-12T03:53:04.170Z,31.25
2022-11-12T03:54:56.261Z,27.05
2022-11-12T03:56:47.966Z,32.20
2022-11-12T03:58:39.707Z,37.03
2022-11-12T04:00:33.569Z,30.00
2022-11-12T04:02:26.706Z,36.60
2022-11-12T04:04:18.526Z,28.65
2022-11-12T04:06:27.684Z,69.32
2022-11-12T04:08:38.666Z,44.33
2022-11-12T04:10:31.228Z,25.65
2022-11-12T04:12:40.250Z,47.13
2022-11-12T04:14:32.542Z,48.13
2022-11-12T04:16:43.393Z,41.70
2022-11-12T04:18:52.701Z,38.63
2022-11-12T04:21:00.967Z,20.05
2022-11-12T04:22:52.978Z,22.88
2022-11-12T04:25:01.941Z,27.35
2022-11-12T04:26:53.804Z,94.60
2022-11-12T04:29:06.143Z,57.45
2022-11-12T04:30:56.750Z,26.90
2022-11-12T04:32:52.992Z,31.42
2022-11-12T04:34:43.731Z,23.63
2022-11-12T04:36:35.671Z,27.55
2022-11-12T04:38:28.419Z,29.02
2022-11-12T04:40:39.554Z,25.05
2022-11-12T04:42:45.430Z,24.17
2022-11-12T04:44:54.757Z,51.78
2022-11-12T04:46:46.540Z,50.38
2022-11-12T04:48:40.252Z,53.38
2022-11-12T04:50:32.376Z,57.42
2022-11-12T04:52:23.247Z,63.20
2022-11-12T04:54:15.036Z,61.65
2022-11-12T04:56:06.948Z,66.85
2022-11-12T04:58:00.825Z,54.33
2022-11-12T04:59:53.008Z,74.53
2022-11-12T05:01:44.000Z,120.07
2022-11-12T05:03:36.054Z,71.75
2022-11-12T05:05:33.631Z,70.03
2022-11-12T05:07:26.224Z,66.95
2022-11-12T05:09:17.028Z,72.97
2022-11-12T05:11:12.788Z,52.45
2022-11-12T05:13:04.893Z,51.30
2022-11-12T05:14:56.771Z,47.55
2022-11-12T05:16:48.234Z,56.47
2022-11-12T05:18:40.437Z,54.30
2022-11-12T05:20:33.301Z,51.63
2022-11-12T05:22:42.809Z,49.30
2022-11-12T05:24:42.790Z,50.47
2022-11-12T05:26:34.453Z,47.40
2022-11-12T05:28:26.551Z,56.22
2022-11-12T05:30:18.403Z,51.33
2022-11-12T05:32:12.664Z,48.40
2022-11-12T05:34:04.865Z,51.78
2022-11-12T05:35:58.880Z,44.47
2022-11-12T05:37:50.742Z,47.05
2022-11-12T05:39:42.604Z,35.88
2022-11-12T05:41:51.371Z,33.35
2022-11-12T05:43:46.201Z,38.78
2022-11-12T05:45:38.016Z,74.18
2022-11-12T05:47:30.213Z,52.08
2022-11-12T05:49:22.104Z,35.40
2022-11-12T05:51:15.019Z,36.83
2022-11-12T05:53:06.904Z,36.53
2022-11-12T05:54:58.393Z,36.05
2022-11-12T05:56:53.074Z,47.15
2022-11-12T05:58:43.639Z,49.72
2022-11-12T06:00:39.059Z,39.58
2022-11-12T06:02:31.504Z,32.58
2022-11-12T06:04:23.438Z,23.58
2022-11-12T06:06:16.749Z,27.30
2022-11-12T06:08:08.466Z,25.00
2022-11-12T06:10:00.651Z,22.20
2022-11-12T06:11:52.566Z,20.38
2022-11-12T06:13:44.530Z,22.55
2022-11-12T06:15:39.322Z,21.65
2022-11-12T06:17:31.572Z,27.08
2022-11-12T06:19:23.719Z,19.70
2022-11-12T06:21:27.791Z,22.17
2022-11-12T06:23:19.770Z,24.25
2022-11-12T06:25:11.440Z,17.95
2022-11-12T06:27:03.789Z,18.77
2022-11-12T06:28:56.131Z,17.58
2022-11-12T06:30:50.100Z,23.80
2022-11-12T06:32:42.192Z,25.92
2022-11-12T06:34:33.848Z,24.00
2022-11-12T06:36:27.924Z,27.23
2022-11-12T06:38:19.067Z,32.38
2022-11-12T06:40:11.310Z,35.28
2022-11-12T06:42:04.070Z,31.67
2022-11-12T06:43:56.164Z,72.63
2022-11-12T06:45:47.280Z,37.58
2022-11-12T06:47:39.217Z,42.13
2022-11-12T06:49:31.169Z,39.33
2022-11-12T06:51:23.146Z,38.10
2022-11-12T06:53:16.243Z,43.38
2022-11-12T06:55:09.579Z,48.42
2022-11-12T06:57:01.245Z,45.28
2022-11-12T06:58:52.933Z,39.15
2022-11-12T07:00:44.308Z,38.00
2022-11-12T07:02:36.266Z,41.22
2022-11-12T07:04:28.132Z,34.13
2022-11-12T07:06:20.852Z,25.13
2022-11-12T07:08:13.048Z,30.20
2022-11-12T07:10:06.986Z,35.63
2022-11-12T07:11:58.859Z,40.13
2022-11-12T07:13:50.870Z,32.55
2022-11-12T07:15:42.453Z,45.90
2022-11-12T07:17:34.110Z,28.80
2022-11-12T07:19:25.629Z,30.27
2022-11-12T07:21:20.036Z,22.13
2022-11-12T07:23:11.832Z,22.77
2022-11-12T07:25:05.716Z,20.58
2022-11-12T07:26:57.463Z,23.52
2022-11-12T07:28:50.338Z,31.00
2022-11-12T07:30:42.359Z,24.23
2022-11-12T07:32:38.498Z,24.58
2022-11-12T07:34:34.341Z,25.65
2022-11-12T07:36:26.164Z,33.42
2022-11-12T07:38:17.979Z,27.45
2022-11-12T07:40:12.578Z,32.42
2022-11-12T07:42:04.563Z,24.55
2022-11-12T07:43:56.283Z,26.30
2022-11-12T07:45:48.674Z,31.17
2022-11-12T07:47:40.387Z,27.05
2022-11-12T07:49:32.134Z,31.40
2022-11-12T07:51:25.577Z,25.30
2022-11-12T07:53:17.358Z,23.73
2022-11-12T07:55:11.120Z,30.35
2022-11-12T07:57:03.118Z,25.48
2022-11-12T07:58:54.725Z,32.03
2022-11-12T08:00:46.671Z,31.70
2022-11-12T08:02:38.483Z,35.33
2022-11-12T08:04:30.443Z,42.92
2022-11-12T08:06:22.311Z,40.33
2022-11-12T08:08:14.075Z,37.58
2022-11-12T08:10:07.277Z,25.30
2022-11-12T08:12:00.819Z,26.98
2022-11-12T08:13:53.037Z,27.10
2022-11-12T08:15:49.475Z,24.88
2022-11-12T08:17:43.937Z,27.23
2022-11-12T08:19:35.775Z,27.85
2022-11-12T08:21:27.395Z,30.50
2022-11-12T08:23:19.465Z,42.25
2022-11-12T08:25:11.715Z,48.25
2022-11-12T08:27:04.963Z,47.97
2022-11-12T08:28:56.728Z,46.92
2022-11-12T08:30:48.668Z,42.35
2022-11-12T08:32:40.199Z,54.25
2022-11-12T08:34:31.964Z,53.78
2022-11-12T08:36:23.447Z,53.85
2022-11-12T08:38:15.206Z,50.25
2022-11-12T08:40:08.263Z,49.75
2022-11-12T08:42:00.395Z,49.22
2022-11-12T08:43:53.924Z,43.75
2022-11-12T08:45:46.251Z,44.60
2022-11-12T08:47:38.325Z,42.90
2022-11-12T08:49:30.263Z,39.10
2022-11-12T08:51:22.084Z,37.33
2022-11-12T08:53:15.015Z,30.73
2022-11-12T08:55:07.865Z,35.35
2022-11-12T08:56:59.630Z,48.17
2022-11-12T08:58:51.286Z,66.78
2022-11-12T09:00:46.404Z,64.88
2022-11-12T09:02:38.692Z,51.42
2022-11-12T09:04:30.112Z,58.83
2022-11-12T09:06:21.841Z,41.97
2022-11-12T09:08:16.066Z,43.90
2022-11-12T09:10:09.277Z,27.85
2022-11-12T09:12:04.572Z,31.20
2022-11-12T09:14:00.263Z,31.58
2022-11-12T09:15:53.748Z,36.08
2022-11-12T09:17:48.027Z,29.17
2022-11-12T09:19:42.968Z,30.80
2022-11-12T09:21:35.556Z,32.42
2022-11-12T09:23:27.515Z,29.63
2022-11-12T09:25:19.481Z,36.65
2022-11-12T09:27:11.100Z,35.63
2022-11-12T09:29:03.127Z,49.58
2022-11-12T09:30:56.889Z,40.97
2022-11-12T09:32:48.550Z,40.75
2022-11-12T09:34:40.225Z,36.05
2022-11-12T09:36:35.857Z,34.22
2022-11-12T09:38:30.973Z,37.20
2022-11-12T09:40:25.668Z,34.30
2022-11-12T09:42:21.085Z,35.97
2022-11-12T09:44:16.917Z,32.45
2022-11-12T09:46:28.536Z,26.60
2022-11-12T09:48:26.715Z,34.15
2022-11-12T09:50:23.189Z,37.60
2022-11-12T09:52:20.453Z,32.65
2022-11-12T09:54:23.927Z,36.15
2022-11-12T09:56:19.533Z,48.28
2022-11-12T09:58:13.547Z,46.17
2022-11-12T10:00:12.546Z,39.97
2022-11-12T10:02:17.586Z,37.58
2022-11-12T10:04:28.354Z,34.75
2022-11-12T10:06:23.780Z,28.15
2022-11-12T10:08:38.941Z,32.95
2022-11-12T10:10:39.507Z,33.65
2022-11-12T10:12:44.696Z,35.13
2022-11-12T10:14:52.752Z,30.33
2022-11-12T10:16:55.303Z,36.03
2022-11-12T10:19:04.095Z,35.17
2022-11-12T10:21:00.349Z,35.85
2022-11-12T10:23:08.411Z,66.13
2022-11-12T10:25:11.805Z,37.58
2022-11-12T10:27:12.902Z,30.90
2022-11-12T10:29:15.464Z,34.42
2022-11-12T10:31:12.958Z,34.92
2022-11-12T10:33:04.937Z,33.47
2022-11-12T10:34:58.380Z,36.50
2022-11-12T10:36:55.629Z,35.17
2022-11-12T10:38:49.768Z,34.50
2022-11-12T10:40:43.537Z,43.88
2022-11-12T10:42:35.384Z,39.80
2022-11-12T10:44:28.011Z,36.40
2022-11-12T10:46:21.193Z,36.78
2022-11-12T10:48:27.336Z,38.72
2022-11-12T10:50:29.956Z,47.05
2022-11-12T10:52:24.691Z,52.83
2022-11-12T10:54:31.051Z,74.93
2022-11-12T10:56:27.362Z,51.47
2022-11-12T10:58:21.070Z,55.38
2022-11-12T11:00:20.360Z,54.80
2022-11-12T11:02:19.114Z,49.30
2022-11-12T11:04:22.066Z,100.53
2022-11-12T11:06:24.177Z,78.93
2022-11-12T11:08:16.192Z,47.22
2022-11-12T11:10:24.874Z,49.25
2022-11-12T11:12:24.975Z,41.22
2022-11-12T11:14:29.750Z,44.53
2022-11-12T11:16:23.639Z,37.78
2022-11-12T11:18:15.875Z,38.70
2022-11-12T11:20:17.906Z,39.30
2022-11-12T11:22:38.639Z,40.85
2022-11-12T11:24:38.215Z,36.88
2022-11-12T11:26:39.137Z,41.22
2022-11-12T11:28:39.042Z,40.47
2022-11-12T11:30:31.026Z,51.25
2022-11-12T11:32:46.726Z,52.22
2022-11-12T11:34:45.549Z,52.55
2022-11-12T11:36:45.286Z,43.53
2022-11-12T11:38:50.809Z,43.22
2022-11-12T11:40:52.105Z,44.42
2022-11-12T11:43:15.706Z,41.30
2022-11-12T11:45:16.481Z,32.70
2022-11-12T11:47:27.687Z,37.35
2022-11-12T11:49:51.435Z,39.63
2022-11-12T11:51:54.262Z,34.17
2022-11-12T11:53:59.457Z,44.42
2022-11-12T11:55:56.489Z,41.03
2022-11-12T11:57:59.656Z,42.42
2022-11-12T12:00:05.719Z,43.97
2022-11-12T12:02:23.873Z,45.13
2022-11-12T12:04:38.237Z,42.92
2022-11-12T12:06:32.212Z,45.53
2022-11-12T12:08:33.942Z,44.85
2022-11-12T12:11:06.417Z,38.90
2022-11-12T12:13:01.722Z,41.22
2022-11-12T12:15:06.643Z,44.80
2022-11-12T12:17:08.518Z,42.60
2022-11-12T12:19:08.372Z,49.38
2022-11-12T12:21:07.369Z,42.17
2022-11-12T12:23:04.081Z,45.17
2022-11-12T12:25:00.276Z,44.60
2022-11-12T12:26:57.552Z,35.30
2022-11-12T12:28:54.560Z,37.92
2022-11-12T12:30:50.652Z,34.03
2022-11-12T12:32:48.425Z,33.88
2022-11-12T12:34:44.251Z,34.17
2022-11-12T12:36:40.213Z,39.08
2022-11-12T12:38:42.177Z,36.92
2022-11-12T12:40:36.804Z,33.10
2022-11-12T12:42:37.601Z,38.13
2022-11-12T12:44:49.827Z,34.92
2022-11-12T12:46:44.306Z,39.20
2022-11-12T12:48:41.721Z,34.20
2022-11-12T12:50:35.101Z,29.90
2022-11-12T12:52:26.922Z,33.05
2022-11-12T12:54:56.515Z,31.88
2022-11-12T12:56:50.359Z,29.88
2022-11-12T12:58:46.981Z,32.63
2022-11-12T13:00:41.078Z,42.30
2022-11-12T13:02:39.445Z,35.47
2022-11-12T13:04:53.192Z,36.60
2022-11-12T13:06:55.117Z,42.15
2022-11-12T13:08:47.358Z,37.15
2022-11-12T13:10:50.457Z,38.63
2022-11-12T13:13:06.611Z,28.38
2022-11-12T13:15:17.902Z,34.35
2022-11-12T13:17:12.328Z,34.72
2022-11-12T13:19:04.384Z,40.00
2022-11-12T13:21:10.739Z,51.30
2022-11-12T13:23:03.214Z,36.10
2022-11-12T13:25:05.573Z,27.88
2022-11-12T13:26:58.897Z,26.02
2022-11-12T13:29:22.767Z,28.17
2022-11-12T13:31:30.466Z,24.05
2022-11-12T13:33:27.933Z,27.88
2022-11-12T13:35:31.318Z,44.83
2022-11-12T13:37:24.626Z,46.25
2022-11-12T13:39:19.679Z,42.63
2022-11-12T13:41:17.380Z,51.80
2022-11-12T13:43:18.652Z,33.17
2022-11-12T13:45:13.526Z,43.78
2022-11-12T13:47:06.643Z,31.60
2022-11-12T13:49:02.260Z,35.90
2022-11-12T13:50:57.536Z,38.67
2022-11-12T13:52:49.890Z,46.63
2022-11-12T13:54:41.952Z,46.95
2022-11-12T13:56:36.168Z,41.85
2022-11-12T13:58:30.090Z,46.25
2022-11-12T14:00:25.098Z,53.83
2022-11-12T14:02:23.957Z,62.97
2022-11-12T14:04:18.137Z,59.88
2022-11-12T14:06:17.981Z,47.65
2022-11-12T14:08:33.715Z,57.35
2022-11-12T14:10:35.990Z,39.17
2022-11-12T14:12:53.811Z,162.98
2022-11-12T14:15:04.239Z,268.48
2022-11-12T14:17:10.228Z,219.38
2022-11-12T14:19:36.812Z,155.27
2022-11-12T14:21:28.894Z,180.23
2022-11-12T14:23:25.200Z,157.07
2022-11-12T14:25:21.057Z,91.20
2022-11-12T14:27:35.762Z,62.70
2022-11-12T14:29:34.145Z,54.13
2022-11-12T14:31:27.595Z,43.38
2022-11-12T14:33:22.049Z,59.75
2022-11-12T14:35:34.636Z,52.25
2022-11-12T14:37:42.852Z,57.70
2022-11-12T14:39:35.634Z,56.58
2022-11-12T14:41:33.885Z,57.08
2022-11-12T14:43:36.418Z,60.58
2022-11-12T14:45:32.588Z,66.03
2022-11-12T14:47:27.466Z,58.15
2022-11-12T14:49:23.369Z,60.20
2022-11-12T14:51:17.503Z,57.28
2022-11-12T14:53:16.542Z,65.05
2022-11-12T14:55:14.155Z,63.25
2022-11-12T14:57:06.138Z,61.08
2022-11-12T14:58:58.048Z,53.15
2022-11-12T15:00:51.642Z,74.38
2022-11-12T15:02:57.425Z,61.70
2022-11-12T15:04:55.901Z,69.13
2022-11-12T15:06:56.346Z,64.03
2022-11-12T15:08:58.743Z,66.53
2022-11-12T15:10:50.884Z,75.28
2022-11-12T15:12:42.977Z,61.20
2022-11-12T15:14:35.668Z,49.33
2022-11-12T15:16:29.709Z,49.00
2022-11-12T15:18:24.912Z,67.13
2022-11-12T15:20:18.955Z,63.95
2022-11-12T15:22:22.230Z,48.20
2022-11-12T15:24:19.889Z,53.65
2022-11-12T15:26:17.095Z,58.47
2022-11-12T15:28:22.390Z,62.42
2022-11-12T15:30:23.555Z,68.28
2022-11-12T15:32:34.663Z,66.22
2022-11-12T15:34:48.213Z,56.10
2022-11-12T15:36:42.757Z,55.08
2022-11-12T15:38:38.439Z,51.40
2022-11-12T15:40:32.199Z,48.70
2022-11-12T15:42:29.186Z,49.88
2022-11-12T15:44:21.189Z,68.10
2022-11-12T15:46:15.575Z,51.42
2022-11-12T15:48:10.681Z,50.95
2022-11-12T15:50:15.676Z,62.75
2022-11-12T15:52:07.737Z,46.15
2022-11-12T15:54:01.051Z,57.30
2022-11-12T15:55:53.650Z,65.45
2022-11-12T15:57:49.455Z,60.92
2022-11-12T15:59:42.207Z,65.70
2022-11-12T16:01:34.448Z,65.05
2022-11-12T16:03:26.558Z,88.97
2022-11-12T16:05:20.116Z,86.70
2022-11-12T16:07:11.843Z,56.35
2022-11-12T16:09:05.431Z,53.75
2022-11-12T16:10:57.187Z,45.88
2022-11-12T16:12:49.503Z,53.97
2022-11-12T16:14:41.822Z,51.13
2022-11-12T16:16:34.443Z,41.67
2022-11-12T16:18:26.163Z,41.20
2022-11-12T16:20:21.362Z,45.17
2022-11-12T16:22:13.743Z,38.35
2022-11-12T16:24:08.442Z,37.30
2022-11-12T16:26:02.576Z,39.53
2022-11-12T16:27:56.080Z,41.53
2022-11-12T16:29:47.873Z,46.42
2022-11-12T16:31:39.585Z,46.78
2022-11-12T16:33:31.692Z,40.80
2022-11-12T16:35:23.869Z,45.90
2022-11-12T16:37:16.184Z,40.65
2022-11-12T16:39:12.941Z,40.47
2022-11-12T16:41:04.664Z,40.47
2022-11-12T16:42:56.776Z,37.20
2022-11-12T16:44:48.492Z,37.35
2022-11-12T16:46:41.313Z,37.00
2022-11-12T16:48:33.468Z,45.75
2022-11-12T16:50:27.648Z,42.85
2022-11-12T16:52:19.930Z,45.38
2022-11-12T16:54:12.836Z,60.97
2022-11-12T16:56:05.179Z,55.42
2022-11-12T16:57:57.032Z,43.55
2022-11-12T16:59:48.531Z,47.75
2022-11-12T17:01:40.209Z,56.75
2022-11-12T17:03:32.198Z,74.28
2022-11-12T17:05:26.424Z,102.47
2022-11-12T17:07:18.196Z,79.47
2022-11-12T17:09:13.651Z,74.82
2022-11-12T17:11:10.224Z,60.42
2022-11-12T17:13:01.821Z,69.40
2022-11-12T17:14:54.061Z,82.80
2022-11-12T17:16:46.457Z,75.07
2022-11-12T17:18:38.782Z,127.07
2022-11-12T17:20:31.975Z,74.43
2022-11-12T17:22:24.551Z,47.25
2022-11-12T17:24:18.407Z,37.53
2022-11-12T17:26:13.401Z,70.93
2022-11-12T17:28:05.439Z,59.75
2022-11-12T17:29:57.065Z,39.08
2022-11-12T17:31:50.091Z,35.13
2022-11-12T17:33:44.120Z,42.13
2022-11-12T17:35:35.861Z,39.15
2022-11-12T17:37:28.239Z,34.70
2022-11-12T17:39:21.153Z,32.60
2022-11-12T17:41:13.477Z,33.03
2022-11-12T17:43:05.637Z,45.33
2022-11-12T17:44:57.803Z,44.05
2022-11-12T17:46:50.530Z,31.10
2022-11-12T17:48:43.233Z,33.20
2022-11-12T17:50:35.439Z,47.80
2022-11-12T17:52:27.560Z,36.75
2022-11-12T17:54:25.108Z,36.30
2022-11-12T17:56:18.946Z,49.40
2022-11-12T17:58:10.934Z,35.13
2022-11-12T18:00:02.530Z,44.00
2022-11-12T18:01:54.404Z,47.42
2022-11-12T18:03:50.271Z,42.92
2022-11-12T18:05:42.029Z,40.78
2022-11-12T18:07:34.556Z,38.55
2022-11-12T18:09:28.888Z,43.53
2022-11-12T18:11:21.094Z,40.97
2022-11-12T18:13:13.016Z,42.75
2022-11-12T18:15:05.289Z,56.63
2022-11-12T18:17:01.879Z,49.67
2022-11-12T18:18:55.527Z,52.10
2022-11-12T18:20:47.465Z,56.50
2022-11-12T18:22:44.726Z,52.35
2022-11-12T18:24:38.345Z,56.30
2022-11-12T18:26:30.198Z,62.88
2022-11-12T18:28:22.577Z,69.07
2022-11-12T18:30:19.149Z,55.55
2022-11-12T18:32:11.480Z,53.65
2022-11-12T18:34:03.227Z,52.05
2022-11-12T18:36:02.454Z,52.80
2022-11-12T18:37:54.204Z,47.45
2022-11-12T18:39:47.759Z,45.13
2022-11-12T18:41:39.785Z,46.50
2022-11-12T18:43:31.901Z,42.40
2022-11-12T18:45:24.168Z,44.88
2022-11-12T18:47:16.501Z,43.83
2022-11-12T18:49:08.209Z,41.47
2022-11-12T18:51:02.998Z,42.10
2022-11-12T18:52:55.035Z,51.90
2022-11-12T18:54:48.582Z,43.08
2022-11-12T18:56:42.765Z,40.53
2022-11-12T18:58:35.764Z,37.20
2022-11-12T19:00:30.062Z,33.13
2022-11-12T19:02:22.204Z,36.20
2022-11-12T19:04:14.046Z,46.33
2022-11-12T19:06:08.018Z,40.08
2022-11-12T19:08:00.272Z,53.97
2022-11-12T19:09:53.283Z,70.28
2022-11-12T19:11:45.251Z,72.65
2022-11-12T19:13:37.300Z,58.92
2022-11-12T19:15:29.403Z,63.08
2022-11-12T19:17:21.781Z,55.47
2022-11-12T19:19:15.328Z,33.92
2022-11-12T19:21:08.601Z,34.70
2022-11-12T19:23:01.299Z,29.23
2022-11-12T19:24:54.881Z,36.00
2022-11-12T19:26:49.044Z,43.22
2022-11-12T19:28:41.574Z,31.67
2022-11-12T19:30:33.982Z,36.17
2022-11-12T19:32:25.811Z,39.72
2022-11-12T19:34:18.332Z,45.13
2022-11-12T19:36:13.666Z,46.38
2022-11-12T19:38:05.167Z,43.75
2022-11-12T19:39:58.376Z,35.80
2022-11-12T19:41:50.283Z,41.35
2022-11-12T19:43:42.132Z,41.58
2022-11-12T19:45:33.819Z,46.08
2022-11-12T19:47:25.976Z,78.88
2022-11-12T19:49:17.952Z,67.78
2022-11-12T19:51:12.334Z,52.53
2022-11-12T19:53:04.816Z,64.20
2022-11-12T19:54:58.311Z,64.45
2022-11-12T19:56:50.460Z,63.40
2022-11-12T19:58:46.544Z,54.08
2022-11-12T20:00:38.368Z,57.15
2022-11-12T20:02:30.703Z,60.10
2022-11-12T20:04:24.332Z,55.13
2022-11-12T20:06:18.179Z,46.10
2022-11-12T20:08:10.826Z,51.22
2022-11-12T20:10:04.137Z,51.67
2022-11-12T20:11:55.972Z,58.05
2022-11-12T20:13:47.908Z,71.85
2022-11-12T20:15:39.979Z,70.65
2022-11-12T20:17:33.383Z,121.70
2022-11-12T20:19:26.295Z,89.40
2022-11-12T20:21:18.566Z,92.65
2022-11-12T20:23:10.340Z,87.28
2022-11-12T20:25:04.041Z,64.80
2022-11-12T20:26:55.669Z,70.80
2022-11-12T20:28:47.860Z,66.15
2022-11-12T20:30:39.875Z,106.93
2022-11-12T20:32:31.743Z,95.25
2022-11-12T20:34:23.171Z,108.68
2022-11-12T20:36:16.555Z,103.95
2022-11-12T20:38:08.750Z,99.20
2022-11-12T20:40:00.761Z,72.20
2022-11-12T20:41:54.356Z,66.43
2022-11-12T20:43:46.485Z,77.43
2022-11-12T20:45:38.349Z,66.22
2022-11-12T20:47:30.517Z,67.05
2022-11-12T20:49:22.922Z,65.47
2022-11-12T20:51:25.711Z,55.53
2022-11-12T20:53:18.093Z,52.35
2022-11-12T20:55:10.509Z,51.22
2022-11-12T20:57:03.545Z,51.78
2022-11-12T20:58:55.783Z,58.78
2022-11-12T21:00:47.987Z,48.35
2022-11-12T21:02:39.945Z,45.17
2022-11-12T21:04:32.088Z,47.00
2022-11-12T21:06:26.448Z,42.67
2022-11-12T21:08:18.334Z,45.25
2022-11-12T21:10:10.946Z,54.72
2022-11-12T21:12:05.042Z,45.08
2022-11-12T21:13:56.588Z,49.55
2022-11-12T21:15:48.753Z,46.05
2022-11-12T21:17:40.665Z,48.78
2022-11-12T21:19:32.689Z,53.97
2022-11-12T21:21:24.294Z,59.15
2022-11-12T21:23:15.952Z,57.78
2022-11-12T21:25:08.614Z,55.55
2022-11-12T21:27:00.801Z,55.08
2022-11-12T21:28:55.623Z,50.53
2022-11-12T21:30:47.348Z,50.08
2022-11-12T21:32:39.543Z,50.72
2022-11-12T21:34:31.014Z,52.53
2022-11-12T21:36:23.479Z,59.70
2022-11-12T21:38:15.478Z,58.40
2022-11-12T21:40:09.280Z,76.03
2022-11-12T21:42:00.706Z,83.90
2022-11-12T21:43:54.869Z,57.45
2022-11-12T21:45:47.467Z,58.60
2022-11-12T21:47:39.596Z,66.55
2022-11-12T21:49:31.682Z,76.07
2022-11-12T21:51:25.281Z,104.45
2022-11-12T21:53:17.322Z,83.85
2022-11-12T21:55:09.784Z,81.10
2022-11-12T21:57:01.463Z,82.13
2022-11-12T21:58:59.328Z,76.30
2022-11-12T22:00:50.924Z,72.93
2022-11-12T22:02:43.068Z,74.32
2022-11-12T22:04:34.908Z,69.55
2022-11-12T22:06:28.697Z,63.53
2022-11-12T22:08:20.347Z,58.78
2022-11-12T22:10:12.248Z,59.83
2022-11-12T22:12:05.336Z,63.38
2022-11-12T22:13:58.343Z,74.07
2022-11-12T22:15:51.033Z,61.80
2022-11-12T22:17:42.740Z,61.47
2022-11-12T22:19:35.254Z,56.03
2022-11-12T22:21:28.578Z,70.65
2022-11-12T22:23:20.369Z,76.43
2022-11-12T22:25:12.308Z,70.40
2022-11-12T22:27:05.588Z,77.10
2022-11-12T22:28:59.942Z,86.10
2022-11-12T22:30:52.060Z,70.63
2022-11-12T22:32:43.916Z,70.30
2022-11-12T22:34:36.193Z,67.97
2022-11-12T22:36:29.849Z,62.97
2022-11-12T22:38:21.403Z,55.08
2022-11-12T22:40:13.880Z,51.15
2022-11-12T22:42:06.012Z,44.85
2022-11-12T22:44:00.846Z,47.30
2022-11-12T22:45:52.565Z,45.53
2022-11-12T22:47:44.536Z,50.40
2022-11-12T22:49:36.369Z,47.50
2022-11-12T22:51:30.236Z,47.25
2022-11-12T22:53:22.176Z,49.80
2022-11-12T22:55:13.963Z,43.42
2022-11-12T22:57:05.771Z,59.55
2022-11-12T22:58:59.375Z,58.72
2022-11-12T23:00:51.239Z,69.55
2022-11-12T23:02:47.393Z,49.92
2022-11-12T23:04:39.319Z,47.60
2022-11-12T23:06:32.485Z,46.95
2022-11-12T23:08:24.523Z,45.80
2022-11-12T23:10:16.438Z,47.95
2022-11-12T23:12:08.177Z,41.00
2022-11-12T23:14:01.532Z,42.60
2022-11-12T23:15:53.641Z,37.53
2022-11-12T23:17:45.380Z,42.55
2022-11-12T23:19:36.865Z,41.42
2022-11-12T23:21:30.918Z,35.33
2022-11-12T23:23:22.362Z,38.70
2022-11-12T23:25:14.182Z,33.58
2022-11-12T23:27:06.271Z,36.53
2022-11-12T23:28:58.242Z,34.90
2022-11-12T23:30:52.010Z,39.75
2022-11-12T23:32:44.051Z,40.20
2022-11-12T23:34:35.617Z,35.55
2022-11-12T23:36:28.817Z,41.95
2022-11-12T23:38:20.896Z,40.72
2022-11-12T23:40:12.808Z,34.72
2022-11-12T23:42:04.619Z,36.28
2022-11-12T23:43:57.824Z,34.83
2022-11-12T23:45:52.131Z,37.47
2022-11-12T23:47:44.115Z,32.88
2022-11-12T23:49:35.590Z,40.65
2022-11-12T23:51:27.167Z,38.88
2022-11-12T23:53:19.686Z,35.80
2022-11-12T23:55:11.612Z,34.45
2022-11-12T23:57:03.186Z,35.72
2022-11-12T23:58:55.306Z,39.28
